FDX6081 WSSS-ZGGG
Flight info
| Callsign | FDX6081 |
|---|---|
| Flight time | 3h 23m |
| Altitude | 39000 |
| Route | VMR6A VMR M771 DUDIS/K0898F390 M771 DAGAG/K0893F400 M771 DOSUT/N0484F400 M771 DULOP/N0485F390 M771 DUMOL/N0484F400 J103 BEKOL A461 IDUMA IDUMA9 |
| Aircraft | B77L/H-SDE1E2E3FGHIJ2J3J4J5M1RWXY/LB1D1 |
Departure
| Time | 2026-05-06 17:07 |
|---|---|
| Airport | Singapore Changi Airport (WSSS) |
Arrival
| Time | 2026-05-06 20:30 |
|---|---|
| Airport | Guangzhou Baiyun International Airport (ZGGG) |
| Time | Latitude | Longitude | Altitude | Speed | Heading |
|---|---|---|---|---|---|
| 2026-05-06 16:17 | 1.37283 | 103.99215 | 35 ft | 0 kts | 112° |
| 2026-05-06 16:48 | 1.37291 | 103.99198 | 34 ft | 3 kts | 118° |
| 2026-05-06 16:48 | 1.37302 | 103.99180 | 35 ft | 3 kts | 123° |
| 2026-05-06 16:48 | 1.37313 | 103.99163 | 34 ft | 3 kts | 118° |
| 2026-05-06 16:49 | 1.37320 | 103.99147 | 34 ft | 3 kts | 108° |
| 2026-05-06 16:49 | 1.37323 | 103.99132 | 35 ft | 3 kts | 53° |
| 2026-05-06 16:49 | 1.37310 | 103.99123 | 35 ft | 3 kts | 23° |
| 2026-05-06 16:49 | 1.37291 | 103.99115 | 35 ft | 3 kts | 23° |
| 2026-05-06 16:50 | 1.37285 | 103.99112 | 35 ft | 0 kts | 23° |
| 2026-05-06 16:52 | 1.37295 | 103.99116 | 35 ft | 7 kts | 23° |
| 2026-05-06 16:52 | 1.37384 | 103.99154 | 35 ft | 16 kts | 23° |
| 2026-05-06 16:53 | 1.37486 | 103.99197 | 35 ft | 16 kts | 22° |
| 2026-05-06 16:53 | 1.37577 | 103.99217 | 35 ft | 13 kts | 340° |
| 2026-05-06 16:53 | 1.37627 | 103.99139 | 35 ft | 14 kts | 286° |
| 2026-05-06 16:53 | 1.37617 | 103.99095 | 34 ft | 0 kts | 237° |
| 2026-05-06 16:54 | 1.37616 | 103.99093 | 34 ft | 2 kts | 232° |
| 2026-05-06 16:54 | 1.37527 | 103.99048 | 35 ft | 20 kts | 202° |
| 2026-05-06 16:54 | 1.37400 | 103.98995 | 35 ft | 20 kts | 202° |
| 2026-05-06 16:55 | 1.37273 | 103.98942 | 35 ft | 20 kts | 202° |
| 2026-05-06 16:55 | 1.37146 | 103.98894 | 35 ft | 20 kts | 183° |
| 2026-05-06 16:55 | 1.37068 | 103.98997 | 35 ft | 20 kts | 113° |
| 2026-05-06 16:55 | 1.37012 | 103.99126 | 35 ft | 20 kts | 113° |
| 2026-05-06 16:56 | 1.36957 | 103.99253 | 35 ft | 20 kts | 113° |
| 2026-05-06 16:56 | 1.36903 | 103.99379 | 35 ft | 20 kts | 113° |
| 2026-05-06 16:56 | 1.36849 | 103.99507 | 35 ft | 20 kts | 113° |
| 2026-05-06 16:56 | 1.36794 | 103.99635 | 35 ft | 20 kts | 113° |
| 2026-05-06 16:57 | 1.36740 | 103.99762 | 35 ft | 20 kts | 113° |
| 2026-05-06 16:57 | 1.36641 | 103.99800 | 35 ft | 16 kts | 176° |
| 2026-05-06 16:57 | 1.36536 | 103.99839 | 35 ft | 17 kts | 185° |
| 2026-05-06 16:57 | 1.36426 | 103.99797 | 35 ft | 17 kts | 203° |
| 2026-05-06 16:58 | 1.36317 | 103.99750 | 35 ft | 17 kts | 203° |
| 2026-05-06 16:58 | 1.36206 | 103.99703 | 35 ft | 17 kts | 202° |
| 2026-05-06 16:58 | 1.36090 | 103.99656 | 35 ft | 19 kts | 202° |
| 2026-05-06 16:58 | 1.35963 | 103.99604 | 35 ft | 21 kts | 202° |
| 2026-05-06 16:59 | 1.35829 | 103.99546 | 35 ft | 21 kts | 204° |
| 2026-05-06 16:59 | 1.35694 | 103.99488 | 35 ft | 21 kts | 202° |
| 2026-05-06 16:59 | 1.35559 | 103.99431 | 35 ft | 21 kts | 203° |
| 2026-05-06 16:59 | 1.35423 | 103.99373 | 35 ft | 21 kts | 203° |
| 2026-05-06 17:00 | 1.35288 | 103.99315 | 35 ft | 21 kts | 203° |
| 2026-05-06 17:00 | 1.35152 | 103.99259 | 35 ft | 21 kts | 201° |
| 2026-05-06 17:00 | 1.35016 | 103.99204 | 35 ft | 21 kts | 203° |
| 2026-05-06 17:00 | 1.34880 | 103.99145 | 35 ft | 22 kts | 203° |
| 2026-05-06 17:01 | 1.34741 | 103.99086 | 35 ft | 22 kts | 202° |
| 2026-05-06 17:01 | 1.34600 | 103.99028 | 35 ft | 22 kts | 202° |
| 2026-05-06 17:01 | 1.34460 | 103.98969 | 35 ft | 22 kts | 203° |
| 2026-05-06 17:01 | 1.34320 | 103.98910 | 35 ft | 22 kts | 203° |
| 2026-05-06 17:02 | 1.34181 | 103.98851 | 35 ft | 22 kts | 203° |
| 2026-05-06 17:02 | 1.34041 | 103.98791 | 35 ft | 22 kts | 203° |
| 2026-05-06 17:02 | 1.33901 | 103.98731 | 35 ft | 22 kts | 203° |
| 2026-05-06 17:02 | 1.33761 | 103.98674 | 35 ft | 22 kts | 202° |
| 2026-05-06 17:03 | 1.33621 | 103.98615 | 35 ft | 22 kts | 203° |
| 2026-05-06 17:03 | 1.33481 | 103.98556 | 35 ft | 22 kts | 203° |
| 2026-05-06 17:03 | 1.33341 | 103.98497 | 35 ft | 22 kts | 203° |
| 2026-05-06 17:03 | 1.33202 | 103.98438 | 35 ft | 22 kts | 202° |
| 2026-05-06 17:04 | 1.33109 | 103.98399 | 35 ft | 22 kts | 202° |
| 2026-05-06 17:04 | 1.33001 | 103.98355 | 35 ft | 10 kts | 199° |
| 2026-05-06 17:04 | 1.32944 | 103.98373 | 35 ft | 0 kts | 122° |
| 2026-05-06 17:05 | 1.32943 | 103.98375 | 35 ft | 1 kts | 121° |
| 2026-05-06 17:05 | 1.32917 | 103.98428 | 35 ft | 19 kts | 112° |
| 2026-05-06 17:05 | 1.32925 | 103.98522 | 35 ft | 15 kts | 41° |
| 2026-05-06 17:06 | 1.33023 | 103.98559 | 35 ft | 17 kts | 23° |
| 2026-05-06 17:06 | 1.33361 | 103.98702 | 35 ft | 97 kts | 22° |
| 2026-05-06 17:06 | 1.34233 | 103.99063 | 49 ft | 169 kts | 21° |
| 2026-05-06 17:06 | 1.35391 | 103.99536 | 544 ft | 193 kts | 22° |
| 2026-05-06 17:07 | 1.36674 | 104.00049 | 1267 ft | 207 kts | 21° |
| 2026-05-06 17:07 | 1.38119 | 104.00638 | 1767 ft | 237 kts | 21° |
| 2026-05-06 17:07 | 1.39675 | 104.01299 | 2590 ft | 253 kts | 23° |
| 2026-05-06 17:07 | 1.41309 | 104.02021 | 3555 ft | 261 kts | 23° |
| 2026-05-06 17:08 | 1.43000 | 104.02756 | 4584 ft | 268 kts | 23° |
| 2026-05-06 17:08 | 1.44737 | 104.03495 | 5647 ft | 274 kts | 23° |
| 2026-05-06 17:08 | 1.46504 | 104.04240 | 6713 ft | 278 kts | 23° |
| 2026-05-06 17:08 | 1.48333 | 104.04890 | 7590 ft | 283 kts | 9° |
| 2026-05-06 17:09 | 1.50323 | 104.04769 | 8424 ft | 293 kts | 344° |
| 2026-05-06 17:09 | 1.52181 | 104.03926 | 9249 ft | 297 kts | 332° |
| 2026-05-06 17:09 | 1.54011 | 104.02930 | 9870 ft | 302 kts | 331° |
| 2026-05-06 17:09 | 1.55822 | 104.01932 | 10196 ft | 303 kts | 332° |
| 2026-05-06 17:10 | 1.57774 | 104.00857 | 10506 ft | 333 kts | 332° |
| 2026-05-06 17:10 | 1.59896 | 103.99696 | 10752 ft | 363 kts | 332° |
| 2026-05-06 17:10 | 1.62164 | 103.98463 | 11236 ft | 384 kts | 332° |
| 2026-05-06 17:10 | 1.64541 | 103.97174 | 12138 ft | 392 kts | 332° |
| 2026-05-06 17:11 | 1.66950 | 103.95871 | 13239 ft | 396 kts | 332° |
| 2026-05-06 17:11 | 1.69390 | 103.94559 | 14248 ft | 397 kts | 334° |
| 2026-05-06 17:11 | 1.72051 | 103.93685 | 14881 ft | 405 kts | 355° |
| 2026-05-06 17:11 | 1.74820 | 103.93940 | 15709 ft | 409 kts | 18° |
| 2026-05-06 17:12 | 1.77404 | 103.95094 | 16582 ft | 407 kts | 27° |
| 2026-05-06 17:12 | 1.79979 | 103.96359 | 17310 ft | 417 kts | 26° |
| 2026-05-06 17:12 | 1.82613 | 103.97610 | 18119 ft | 422 kts | 26° |
| 2026-05-06 17:12 | 1.85266 | 103.98864 | 18944 ft | 426 kts | 26° |
| 2026-05-06 17:13 | 1.87965 | 104.00134 | 19717 ft | 431 kts | 26° |
| 2026-05-06 17:13 | 1.90707 | 104.01415 | 20451 ft | 439 kts | 26° |
| 2026-05-06 17:13 | 1.93487 | 104.02715 | 21195 ft | 443 kts | 26° |
| 2026-05-06 17:13 | 1.96293 | 104.04027 | 21831 ft | 448 kts | 26° |
| 2026-05-06 17:14 | 1.99133 | 104.05358 | 22438 ft | 454 kts | 27° |
| 2026-05-06 17:14 | 2.02003 | 104.06708 | 23029 ft | 459 kts | 27° |
| 2026-05-06 17:14 | 2.04904 | 104.08071 | 23586 ft | 463 kts | 27° |
| 2026-05-06 17:14 | 2.07836 | 104.09447 | 24151 ft | 467 kts | 27° |
| 2026-05-06 17:15 | 2.10792 | 104.10835 | 24688 ft | 471 kts | 27° |
| 2026-05-06 17:15 | 2.13772 | 104.12234 | 25212 ft | 475 kts | 27° |
| 2026-05-06 17:15 | 2.16776 | 104.13644 | 25717 ft | 479 kts | 27° |
| 2026-05-06 17:15 | 2.19802 | 104.15064 | 26218 ft | 483 kts | 27° |
| 2026-05-06 17:16 | 2.22853 | 104.16496 | 26703 ft | 486 kts | 27° |
| 2026-05-06 17:16 | 2.25927 | 104.17936 | 27179 ft | 489 kts | 27° |
| 2026-05-06 17:16 | 2.29018 | 104.19386 | 27637 ft | 493 kts | 27° |
| 2026-05-06 17:16 | 2.32133 | 104.20847 | 28058 ft | 496 kts | 27° |
| 2026-05-06 17:17 | 2.35264 | 104.22316 | 28463 ft | 499 kts | 27° |
| 2026-05-06 17:17 | 2.38414 | 104.23795 | 28843 ft | 502 kts | 27° |
| 2026-05-06 17:17 | 2.41583 | 104.25283 | 29199 ft | 505 kts | 26° |
| 2026-05-06 17:17 | 2.44770 | 104.26779 | 29558 ft | 507 kts | 26° |
| 2026-05-06 17:18 | 2.47974 | 104.28283 | 29890 ft | 510 kts | 26° |
| 2026-05-06 17:18 | 2.51192 | 104.29793 | 30283 ft | 511 kts | 26° |
| 2026-05-06 17:18 | 2.54406 | 104.31301 | 30766 ft | 509 kts | 26° |
| 2026-05-06 17:18 | 2.57608 | 104.32804 | 31302 ft | 507 kts | 26° |
| 2026-05-06 17:19 | 2.60797 | 104.34300 | 31853 ft | 505 kts | 26° |
| 2026-05-06 17:19 | 2.63973 | 104.35790 | 32372 ft | 504 kts | 26° |
| 2026-05-06 17:19 | 2.67144 | 104.37280 | 32875 ft | 503 kts | 26° |
| 2026-05-06 17:19 | 2.70305 | 104.38765 | 33389 ft | 501 kts | 26° |
| 2026-05-06 17:20 | 2.73458 | 104.40246 | 33926 ft | 500 kts | 26° |
| 2026-05-06 17:20 | 2.76599 | 104.41721 | 34442 ft | 498 kts | 26° |
| 2026-05-06 17:20 | 2.79732 | 104.43193 | 34969 ft | 496 kts | 26° |
| 2026-05-06 17:20 | 2.82844 | 104.44656 | 35501 ft | 494 kts | 26° |
| 2026-05-06 17:21 | 2.85946 | 104.46113 | 36010 ft | 492 kts | 26° |
| 2026-05-06 17:21 | 2.89040 | 104.47566 | 36478 ft | 491 kts | 26° |
| 2026-05-06 17:21 | 2.92087 | 104.48998 | 36900 ft | 490 kts | 26° |
| 2026-05-06 17:21 | 2.95167 | 104.50445 | 37318 ft | 489 kts | 26° |
| 2026-05-06 17:22 | 2.98242 | 104.51889 | 37751 ft | 488 kts | 26° |
| 2026-05-06 17:22 | 3.01313 | 104.53332 | 38171 ft | 487 kts | 26° |
| 2026-05-06 17:22 | 3.04372 | 104.54770 | 38579 ft | 485 kts | 26° |
| 2026-05-06 17:22 | 3.07425 | 104.56206 | 38904 ft | 486 kts | 26° |
| 2026-05-06 17:23 | 3.10498 | 104.57650 | 38874 ft | 489 kts | 26° |
| 2026-05-06 17:23 | 3.16632 | 104.60530 | 38870 ft | 483 kts | 26° |
| 2026-05-06 17:24 | 3.22677 | 104.63370 | 38878 ft | 477 kts | 26° |
| 2026-05-06 17:24 | 3.28670 | 104.66186 | 38883 ft | 475 kts | 26° |
| 2026-05-06 17:25 | 3.34644 | 104.68997 | 38881 ft | 473 kts | 26° |
| 2026-05-06 17:25 | 3.40602 | 104.71801 | 38870 ft | 473 kts | 26° |
| 2026-05-06 17:26 | 3.46557 | 104.74603 | 38874 ft | 474 kts | 26° |
| 2026-05-06 17:26 | 3.52525 | 104.77411 | 38873 ft | 475 kts | 26° |
| 2026-05-06 17:27 | 3.58512 | 104.80224 | 38872 ft | 476 kts | 26° |
| 2026-05-06 17:27 | 3.64506 | 104.83045 | 38869 ft | 477 kts | 26° |
| 2026-05-06 17:28 | 3.70474 | 104.85854 | 38872 ft | 478 kts | 26° |
| 2026-05-06 17:28 | 3.76491 | 104.88687 | 38870 ft | 478 kts | 26° |
| 2026-05-06 17:29 | 3.82520 | 104.91524 | 38862 ft | 479 kts | 26° |
| 2026-05-06 17:29 | 3.88546 | 104.94361 | 38863 ft | 480 kts | 26° |
| 2026-05-06 17:30 | 3.94589 | 104.97206 | 38859 ft | 480 kts | 26° |
| 2026-05-06 17:30 | 4.00623 | 105.00048 | 38861 ft | 479 kts | 26° |
| 2026-05-06 17:31 | 4.06649 | 105.02888 | 38860 ft | 479 kts | 26° |
| 2026-05-06 17:31 | 4.12674 | 105.05725 | 38861 ft | 478 kts | 27° |
| 2026-05-06 17:32 | 4.18696 | 105.08563 | 38858 ft | 478 kts | 27° |
| 2026-05-06 17:32 | 4.24708 | 105.11395 | 38861 ft | 477 kts | 27° |
| 2026-05-06 17:33 | 4.30714 | 105.14226 | 38861 ft | 477 kts | 27° |
| 2026-05-06 17:33 | 4.36723 | 105.17059 | 38861 ft | 478 kts | 27° |
| 2026-05-06 17:34 | 4.42736 | 105.19894 | 38861 ft | 477 kts | 27° |
| 2026-05-06 17:34 | 4.48744 | 105.22728 | 38862 ft | 477 kts | 27° |
| 2026-05-06 17:35 | 4.54716 | 105.25545 | 38861 ft | 478 kts | 27° |
| 2026-05-06 17:35 | 4.60732 | 105.28385 | 38861 ft | 478 kts | 27° |
| 2026-05-06 17:36 | 4.69752 | 105.32641 | 38861 ft | 478 kts | 27° |
| 2026-05-06 17:36 | 4.75770 | 105.35482 | 38861 ft | 478 kts | 27° |
| 2026-05-06 17:37 | 4.81751 | 105.38393 | 38853 ft | 477 kts | 31° |
| 2026-05-06 17:37 | 4.87336 | 105.41958 | 38863 ft | 476 kts | 34° |
| 2026-05-06 17:38 | 4.92866 | 105.45613 | 38863 ft | 476 kts | 34° |
| 2026-05-06 17:38 | 4.98409 | 105.49253 | 38860 ft | 476 kts | 34° |
| 2026-05-06 17:39 | 5.03962 | 105.52874 | 38861 ft | 476 kts | 34° |
| 2026-05-06 17:39 | 5.09521 | 105.56490 | 38860 ft | 476 kts | 34° |
| 2026-05-06 17:40 | 5.15077 | 105.60107 | 38862 ft | 476 kts | 34° |
| 2026-05-06 17:40 | 5.20631 | 105.63720 | 38863 ft | 476 kts | 34° |
| 2026-05-06 17:41 | 5.26187 | 105.67338 | 38860 ft | 476 kts | 34° |
| 2026-05-06 17:41 | 5.31739 | 105.70958 | 38860 ft | 475 kts | 34° |
| 2026-05-06 17:42 | 5.37284 | 105.74569 | 38863 ft | 475 kts | 34° |
| 2026-05-06 17:42 | 5.42790 | 105.78159 | 38864 ft | 475 kts | 34° |
| 2026-05-06 17:43 | 5.48331 | 105.81772 | 38868 ft | 475 kts | 34° |
| 2026-05-06 17:43 | 5.53867 | 105.85382 | 38870 ft | 475 kts | 34° |
| 2026-05-06 17:44 | 5.59404 | 105.88991 | 38870 ft | 474 kts | 34° |
| 2026-05-06 17:44 | 5.64936 | 105.92601 | 38872 ft | 474 kts | 34° |
| 2026-05-06 17:45 | 5.70465 | 105.96211 | 38875 ft | 474 kts | 34° |
| 2026-05-06 17:45 | 5.75992 | 105.99818 | 38872 ft | 474 kts | 34° |
| 2026-05-06 17:46 | 5.81523 | 106.03427 | 38870 ft | 474 kts | 34° |
| 2026-05-06 17:46 | 5.87050 | 106.07034 | 38869 ft | 474 kts | 34° |
| 2026-05-06 17:47 | 5.92577 | 106.10647 | 38875 ft | 474 kts | 34° |
| 2026-05-06 17:47 | 5.98105 | 106.14259 | 38870 ft | 474 kts | 34° |
| 2026-05-06 17:48 | 6.03634 | 106.17873 | 38871 ft | 474 kts | 34° |
| 2026-05-06 17:48 | 6.09164 | 106.21486 | 38868 ft | 474 kts | 34° |
| 2026-05-06 17:49 | 6.14692 | 106.25100 | 38867 ft | 474 kts | 34° |
| 2026-05-06 17:49 | 6.20219 | 106.28714 | 38863 ft | 474 kts | 34° |
| 2026-05-06 17:50 | 6.25749 | 106.32332 | 38860 ft | 474 kts | 34° |
| 2026-05-06 17:50 | 6.31282 | 106.35951 | 38860 ft | 474 kts | 34° |
| 2026-05-06 17:51 | 6.36811 | 106.39570 | 38860 ft | 474 kts | 34° |
| 2026-05-06 17:51 | 6.42304 | 106.43167 | 38862 ft | 474 kts | 34° |
| 2026-05-06 17:52 | 6.47834 | 106.46788 | 38859 ft | 474 kts | 34° |
| 2026-05-06 17:52 | 6.53365 | 106.50411 | 38861 ft | 475 kts | 34° |
| 2026-05-06 17:53 | 6.58000 | 106.53448 | 38862 ft | 475 kts | 34° |
| 2026-05-06 17:53 | 6.63534 | 106.57073 | 38860 ft | 474 kts | 34° |
| 2026-05-06 17:54 | 6.69061 | 106.60697 | 38859 ft | 474 kts | 34° |
| 2026-05-06 17:54 | 6.74596 | 106.64325 | 38862 ft | 475 kts | 34° |
| 2026-05-06 17:55 | 6.80130 | 106.67956 | 38863 ft | 475 kts | 34° |
| 2026-05-06 17:55 | 6.85628 | 106.71563 | 38871 ft | 475 kts | 34° |
| 2026-05-06 17:56 | 6.91166 | 106.75197 | 38869 ft | 475 kts | 34° |
| 2026-05-06 17:56 | 6.96700 | 106.78831 | 38870 ft | 475 kts | 34° |
| 2026-05-06 17:57 | 7.02232 | 106.82464 | 38872 ft | 475 kts | 34° |
| 2026-05-06 17:57 | 7.07761 | 106.86099 | 38870 ft | 475 kts | 34° |
| 2026-05-06 17:58 | 7.13288 | 106.89737 | 38873 ft | 474 kts | 34° |
| 2026-05-06 17:58 | 7.18809 | 106.93372 | 38872 ft | 474 kts | 34° |
| 2026-05-06 17:59 | 7.24334 | 106.97011 | 38873 ft | 474 kts | 34° |
| 2026-05-06 17:59 | 7.29855 | 107.00648 | 38869 ft | 474 kts | 34° |
| 2026-05-06 18:00 | 7.35378 | 107.04288 | 38871 ft | 475 kts | 34° |
| 2026-05-06 18:00 | 7.40897 | 107.07928 | 38869 ft | 474 kts | 34° |
| 2026-05-06 18:01 | 7.46418 | 107.11570 | 38873 ft | 474 kts | 33° |
| 2026-05-06 18:01 | 7.51936 | 107.15209 | 38868 ft | 474 kts | 33° |
| 2026-05-06 18:02 | 7.57454 | 107.18849 | 38868 ft | 475 kts | 33° |
| 2026-05-06 18:02 | 7.62985 | 107.22500 | 38872 ft | 476 kts | 33° |
| 2026-05-06 18:03 | 7.68533 | 107.26163 | 38874 ft | 477 kts | 33° |
| 2026-05-06 18:03 | 7.74091 | 107.29831 | 38875 ft | 478 kts | 33° |
| 2026-05-06 18:04 | 7.79653 | 107.33508 | 38872 ft | 479 kts | 33° |
| 2026-05-06 18:04 | 7.85222 | 107.37189 | 38873 ft | 479 kts | 33° |
| 2026-05-06 18:05 | 7.90797 | 107.40874 | 38867 ft | 479 kts | 33° |
| 2026-05-06 18:05 | 7.96367 | 107.44557 | 38871 ft | 478 kts | 33° |
| 2026-05-06 18:06 | 8.01936 | 107.48238 | 38874 ft | 479 kts | 33° |
| 2026-05-06 18:06 | 8.07503 | 107.51923 | 38870 ft | 478 kts | 33° |
| 2026-05-06 18:07 | 8.13067 | 107.55608 | 38872 ft | 478 kts | 33° |
| 2026-05-06 18:07 | 8.18633 | 107.59293 | 38867 ft | 478 kts | 33° |
| 2026-05-06 18:08 | 8.24192 | 107.62976 | 38876 ft | 478 kts | 33° |
| 2026-05-06 18:08 | 8.29751 | 107.66659 | 38868 ft | 478 kts | 33° |
| 2026-05-06 18:09 | 8.35308 | 107.70343 | 38869 ft | 478 kts | 33° |
| 2026-05-06 18:09 | 8.40864 | 107.74029 | 38869 ft | 478 kts | 33° |
| 2026-05-06 18:10 | 8.46397 | 107.77698 | 38872 ft | 478 kts | 33° |
| 2026-05-06 18:10 | 8.51955 | 107.81384 | 38868 ft | 478 kts | 33° |
| 2026-05-06 18:11 | 8.57476 | 107.85049 | 38872 ft | 478 kts | 33° |
| 2026-05-06 18:11 | 8.63039 | 107.88744 | 38876 ft | 479 kts | 33° |
| 2026-05-06 18:12 | 8.68603 | 107.92440 | 38860 ft | 478 kts | 33° |
| 2026-05-06 18:12 | 8.74168 | 107.96138 | 38862 ft | 479 kts | 33° |
| 2026-05-06 18:13 | 8.79732 | 107.99837 | 38861 ft | 479 kts | 33° |
| 2026-05-06 18:13 | 8.85107 | 108.03410 | 38862 ft | 479 kts | 33° |
| 2026-05-06 18:14 | 8.90679 | 108.07117 | 38860 ft | 479 kts | 33° |
| 2026-05-06 18:14 | 8.96251 | 108.10827 | 38862 ft | 480 kts | 33° |
| 2026-05-06 18:15 | 9.01823 | 108.14538 | 38863 ft | 479 kts | 33° |
| 2026-05-06 18:15 | 9.07397 | 108.18247 | 38871 ft | 479 kts | 33° |
| 2026-05-06 18:16 | 9.12966 | 108.21957 | 38871 ft | 479 kts | 33° |
| 2026-05-06 18:16 | 9.18530 | 108.25665 | 38874 ft | 479 kts | 33° |
| 2026-05-06 18:17 | 9.24092 | 108.29376 | 38869 ft | 479 kts | 33° |
| 2026-05-06 18:17 | 9.29648 | 108.33081 | 38867 ft | 478 kts | 33° |
| 2026-05-06 18:18 | 9.35199 | 108.36786 | 38872 ft | 478 kts | 33° |
| 2026-05-06 18:18 | 9.40753 | 108.40494 | 38870 ft | 478 kts | 33° |
| 2026-05-06 18:19 | 9.46269 | 108.44177 | 38874 ft | 479 kts | 33° |
| 2026-05-06 18:19 | 9.51836 | 108.47887 | 38869 ft | 479 kts | 33° |
| 2026-05-06 18:20 | 9.57400 | 108.51600 | 38869 ft | 479 kts | 33° |
| 2026-05-06 18:20 | 9.62961 | 108.55309 | 38870 ft | 479 kts | 33° |
| 2026-05-06 18:21 | 9.68525 | 108.59022 | 38875 ft | 479 kts | 33° |
| 2026-05-06 18:21 | 9.74088 | 108.62738 | 38868 ft | 479 kts | 33° |
| 2026-05-06 18:22 | 9.79649 | 108.66455 | 38868 ft | 479 kts | 33° |
| 2026-05-06 18:22 | 9.85211 | 108.70173 | 38873 ft | 479 kts | 33° |
| 2026-05-06 18:23 | 9.90777 | 108.73894 | 38872 ft | 479 kts | 33° |
| 2026-05-06 18:23 | 9.96343 | 108.77620 | 38869 ft | 479 kts | 33° |
| 2026-05-06 18:24 | 10.01914 | 108.81347 | 38872 ft | 480 kts | 33° |
| 2026-05-06 18:24 | 10.07441 | 108.85046 | 38866 ft | 480 kts | 33° |
| 2026-05-06 18:25 | 10.13014 | 108.88773 | 38872 ft | 480 kts | 33° |
| 2026-05-06 18:25 | 10.18582 | 108.92499 | 38867 ft | 479 kts | 33° |
| 2026-05-06 18:26 | 10.24150 | 108.96229 | 38869 ft | 479 kts | 33° |
| 2026-05-06 18:26 | 10.29711 | 108.99957 | 38870 ft | 479 kts | 33° |
| 2026-05-06 18:27 | 10.35273 | 109.03687 | 38871 ft | 479 kts | 32° |
| 2026-05-06 18:27 | 10.40833 | 109.07417 | 38867 ft | 479 kts | 32° |
| 2026-05-06 18:28 | 10.46391 | 109.11148 | 38874 ft | 479 kts | 32° |
| 2026-05-06 18:28 | 10.51947 | 109.14878 | 38866 ft | 479 kts | 32° |
| 2026-05-06 18:29 | 10.57503 | 109.18610 | 38874 ft | 479 kts | 32° |
| 2026-05-06 18:29 | 10.63059 | 109.22341 | 38880 ft | 479 kts | 32° |
| 2026-05-06 18:30 | 10.68612 | 109.26077 | 38879 ft | 479 kts | 32° |
| 2026-05-06 18:30 | 10.74167 | 109.29813 | 38881 ft | 479 kts | 32° |
| 2026-05-06 18:31 | 10.79722 | 109.33553 | 38881 ft | 479 kts | 32° |
| 2026-05-06 18:31 | 10.85277 | 109.37291 | 38879 ft | 479 kts | 32° |
| 2026-05-06 18:32 | 10.90796 | 109.41009 | 38883 ft | 479 kts | 32° |
| 2026-05-06 18:32 | 10.96356 | 109.44755 | 38879 ft | 479 kts | 32° |
| 2026-05-06 18:33 | 11.01917 | 109.48505 | 38880 ft | 479 kts | 32° |
| 2026-05-06 18:33 | 11.07472 | 109.52253 | 38879 ft | 479 kts | 32° |
| 2026-05-06 18:34 | 11.13032 | 109.55992 | 38879 ft | 479 kts | 32° |
| 2026-05-06 18:34 | 11.18632 | 109.59676 | 38880 ft | 479 kts | 31° |
| 2026-05-06 18:35 | 11.24242 | 109.63351 | 38879 ft | 479 kts | 31° |
| 2026-05-06 18:35 | 11.29845 | 109.67035 | 38881 ft | 480 kts | 31° |
| 2026-05-06 18:36 | 11.35450 | 109.70730 | 38881 ft | 480 kts | 31° |
| 2026-05-06 18:36 | 11.41054 | 109.74427 | 38878 ft | 479 kts | 31° |
| 2026-05-06 18:37 | 11.45718 | 109.77504 | 39042 ft | 483 kts | 31° |
| 2026-05-06 18:37 | 11.49486 | 109.79992 | 39561 ft | 481 kts | 31° |
| 2026-05-06 18:37 | 11.52247 | 109.81816 | 39950 ft | 479 kts | 31° |
| 2026-05-06 18:38 | 11.55039 | 109.83660 | 40332 ft | 477 kts | 32° |
| 2026-05-06 18:38 | 11.57827 | 109.85502 | 40650 ft | 477 kts | 32° |
| 2026-05-06 18:38 | 11.60614 | 109.87344 | 40808 ft | 479 kts | 32° |
| 2026-05-06 18:38 | 11.63416 | 109.89195 | 40850 ft | 481 kts | 32° |
| 2026-05-06 18:39 | 11.69024 | 109.92903 | 40863 ft | 478 kts | 32° |
| 2026-05-06 18:40 | 11.77355 | 109.98415 | 40881 ft | 474 kts | 32° |
| 2026-05-06 18:40 | 11.82874 | 110.02069 | 40874 ft | 472 kts | 32° |
| 2026-05-06 18:41 | 11.88387 | 110.05720 | 40880 ft | 473 kts | 32° |
| 2026-05-06 18:41 | 11.92977 | 110.08761 | 40884 ft | 473 kts | 32° |
| 2026-05-06 18:42 | 11.98509 | 110.12428 | 40878 ft | 475 kts | 32° |
| 2026-05-06 18:42 | 12.04054 | 110.16106 | 40881 ft | 476 kts | 32° |
| 2026-05-06 18:43 | 12.09613 | 110.19795 | 40885 ft | 477 kts | 32° |
| 2026-05-06 18:43 | 12.15187 | 110.23496 | 40880 ft | 478 kts | 32° |
| 2026-05-06 18:44 | 12.20768 | 110.27203 | 40874 ft | 479 kts | 32° |
| 2026-05-06 18:44 | 12.26353 | 110.30916 | 40876 ft | 479 kts | 32° |
| 2026-05-06 18:45 | 12.31946 | 110.34636 | 40883 ft | 479 kts | 32° |
| 2026-05-06 18:45 | 12.37535 | 110.38358 | 40878 ft | 479 kts | 32° |
| 2026-05-06 18:46 | 12.43057 | 110.42184 | 40882 ft | 479 kts | 33° |
| 2026-05-06 18:46 | 12.48550 | 110.46052 | 40873 ft | 479 kts | 33° |
| 2026-05-06 18:47 | 12.54045 | 110.49904 | 40878 ft | 479 kts | 33° |
| 2026-05-06 18:47 | 12.59545 | 110.53747 | 40885 ft | 478 kts | 33° |
| 2026-05-06 18:48 | 12.65006 | 110.57565 | 40875 ft | 478 kts | 33° |
| 2026-05-06 18:48 | 12.70498 | 110.61407 | 40876 ft | 478 kts | 33° |
| 2026-05-06 18:49 | 12.75987 | 110.65248 | 40883 ft | 478 kts | 33° |
| 2026-05-06 18:49 | 12.81478 | 110.69089 | 40879 ft | 478 kts | 33° |
| 2026-05-06 18:50 | 12.86970 | 110.72933 | 40874 ft | 478 kts | 33° |
| 2026-05-06 18:50 | 12.92461 | 110.76778 | 40876 ft | 478 kts | 33° |
| 2026-05-06 18:51 | 12.97948 | 110.80625 | 40879 ft | 478 kts | 33° |
| 2026-05-06 18:51 | 13.03437 | 110.84475 | 40887 ft | 478 kts | 33° |
| 2026-05-06 18:52 | 13.08929 | 110.88329 | 40876 ft | 478 kts | 33° |
| 2026-05-06 18:52 | 13.14423 | 110.92186 | 40874 ft | 478 kts | 33° |
| 2026-05-06 18:53 | 13.19918 | 110.96046 | 40874 ft | 479 kts | 33° |
| 2026-05-06 18:53 | 13.25413 | 110.99909 | 40874 ft | 479 kts | 33° |
| 2026-05-06 18:54 | 13.30908 | 111.03774 | 40880 ft | 479 kts | 33° |
| 2026-05-06 18:54 | 13.36406 | 111.07643 | 40874 ft | 479 kts | 33° |
| 2026-05-06 18:55 | 13.41904 | 111.11513 | 40883 ft | 479 kts | 33° |
| 2026-05-06 18:55 | 13.47403 | 111.15388 | 40880 ft | 479 kts | 33° |
| 2026-05-06 18:56 | 13.52901 | 111.19263 | 40882 ft | 479 kts | 33° |
| 2026-05-06 18:56 | 13.58400 | 111.23142 | 40877 ft | 479 kts | 33° |
| 2026-05-06 18:57 | 13.63863 | 111.26997 | 40885 ft | 479 kts | 33° |
| 2026-05-06 18:57 | 13.69362 | 111.30880 | 40874 ft | 480 kts | 33° |
| 2026-05-06 18:58 | 13.74862 | 111.34765 | 40887 ft | 480 kts | 33° |
| 2026-05-06 18:58 | 13.80360 | 111.38652 | 40876 ft | 480 kts | 33° |
| 2026-05-06 18:59 | 13.85859 | 111.42542 | 40876 ft | 480 kts | 33° |
| 2026-05-06 18:59 | 13.91359 | 111.46436 | 40882 ft | 480 kts | 33° |
| 2026-05-06 19:00 | 13.96855 | 111.50328 | 40877 ft | 480 kts | 33° |
| 2026-05-06 19:00 | 14.02365 | 111.54214 | 40875 ft | 480 kts | 33° |
| 2026-05-06 19:01 | 14.07882 | 111.58085 | 40879 ft | 480 kts | 33° |
| 2026-05-06 19:01 | 14.13396 | 111.61957 | 40876 ft | 480 kts | 33° |
| 2026-05-06 19:02 | 14.18912 | 111.65839 | 40884 ft | 480 kts | 33° |
| 2026-05-06 19:02 | 14.24425 | 111.69721 | 40878 ft | 480 kts | 33° |
| 2026-05-06 19:03 | 14.29939 | 111.73607 | 40881 ft | 480 kts | 33° |
| 2026-05-06 19:03 | 14.35451 | 111.77493 | 40884 ft | 480 kts | 33° |
| 2026-05-06 19:04 | 14.40963 | 111.81382 | 40876 ft | 480 kts | 33° |
| 2026-05-06 19:04 | 14.46477 | 111.85275 | 40883 ft | 480 kts | 33° |
| 2026-05-06 19:05 | 14.51984 | 111.89165 | 40879 ft | 480 kts | 33° |
| 2026-05-06 19:05 | 14.57497 | 111.93062 | 40881 ft | 480 kts | 33° |
| 2026-05-06 19:06 | 14.62992 | 111.96978 | 40879 ft | 480 kts | 33° |
| 2026-05-06 19:06 | 14.68483 | 112.00902 | 40877 ft | 480 kts | 33° |
| 2026-05-06 19:07 | 14.73950 | 112.04781 | 40878 ft | 480 kts | 33° |
| 2026-05-06 19:07 | 14.79476 | 112.08652 | 40885 ft | 480 kts | 33° |
| 2026-05-06 19:08 | 14.85001 | 112.12523 | 40880 ft | 480 kts | 33° |
| 2026-05-06 19:08 | 14.90520 | 112.16398 | 40881 ft | 480 kts | 33° |
| 2026-05-06 19:09 | 14.96037 | 112.20280 | 40882 ft | 480 kts | 33° |
| 2026-05-06 19:09 | 15.01552 | 112.24163 | 40881 ft | 480 kts | 33° |
| 2026-05-06 19:10 | 15.07067 | 112.28049 | 40880 ft | 479 kts | 33° |
| 2026-05-06 19:10 | 15.12580 | 112.31935 | 40879 ft | 479 kts | 33° |
| 2026-05-06 19:11 | 15.18092 | 112.35823 | 40885 ft | 479 kts | 33° |
| 2026-05-06 19:11 | 15.23600 | 112.39711 | 40890 ft | 479 kts | 33° |
| 2026-05-06 19:12 | 15.29109 | 112.43601 | 40885 ft | 479 kts | 33° |
| 2026-05-06 19:12 | 15.34619 | 112.47496 | 40878 ft | 480 kts | 33° |
| 2026-05-06 19:13 | 15.40130 | 112.51393 | 40879 ft | 479 kts | 33° |
| 2026-05-06 19:13 | 15.45636 | 112.55290 | 40881 ft | 479 kts | 33° |
| 2026-05-06 19:14 | 15.51145 | 112.59191 | 40879 ft | 479 kts | 33° |
| 2026-05-06 19:14 | 15.56650 | 112.63092 | 40878 ft | 479 kts | 33° |
| 2026-05-06 19:15 | 15.62154 | 112.66995 | 40879 ft | 479 kts | 33° |
| 2026-05-06 19:15 | 15.67657 | 112.70899 | 40878 ft | 479 kts | 33° |
| 2026-05-06 19:16 | 15.73161 | 112.74807 | 40881 ft | 479 kts | 33° |
| 2026-05-06 19:16 | 15.78664 | 112.78717 | 40882 ft | 479 kts | 33° |
| 2026-05-06 19:17 | 15.84161 | 112.82625 | 40878 ft | 479 kts | 33° |
| 2026-05-06 19:17 | 15.89663 | 112.86539 | 40877 ft | 479 kts | 33° |
| 2026-05-06 19:18 | 15.95160 | 112.90453 | 40878 ft | 479 kts | 33° |
| 2026-05-06 19:18 | 16.00620 | 112.94343 | 40878 ft | 479 kts | 33° |
| 2026-05-06 19:19 | 16.06115 | 112.98259 | 40880 ft | 479 kts | 33° |
| 2026-05-06 19:19 | 16.11612 | 113.02181 | 40876 ft | 479 kts | 33° |
| 2026-05-06 19:20 | 16.17106 | 113.06103 | 40880 ft | 479 kts | 33° |
| 2026-05-06 19:20 | 16.22596 | 113.10025 | 40878 ft | 479 kts | 33° |
| 2026-05-06 19:21 | 16.28093 | 113.13954 | 40879 ft | 479 kts | 33° |
| 2026-05-06 19:21 | 16.33581 | 113.17880 | 40878 ft | 479 kts | 33° |
| 2026-05-06 19:22 | 16.39071 | 113.21810 | 40880 ft | 479 kts | 33° |
| 2026-05-06 19:22 | 16.44556 | 113.25740 | 40880 ft | 479 kts | 33° |
| 2026-05-06 19:23 | 16.50041 | 113.29672 | 40880 ft | 479 kts | 33° |
| 2026-05-06 19:23 | 16.55489 | 113.33579 | 40883 ft | 479 kts | 33° |
| 2026-05-06 19:24 | 16.60974 | 113.37517 | 40880 ft | 478 kts | 33° |
| 2026-05-06 19:24 | 16.66456 | 113.41455 | 40878 ft | 478 kts | 33° |
| 2026-05-06 19:25 | 16.71935 | 113.45394 | 40880 ft | 479 kts | 33° |
| 2026-05-06 19:25 | 16.77417 | 113.49338 | 40882 ft | 479 kts | 33° |
| 2026-05-06 19:26 | 16.82899 | 113.53285 | 40877 ft | 479 kts | 33° |
| 2026-05-06 19:26 | 16.88376 | 113.57230 | 40886 ft | 478 kts | 33° |
| 2026-05-06 19:27 | 16.93853 | 113.61180 | 40887 ft | 478 kts | 33° |
| 2026-05-06 19:27 | 16.99327 | 113.65130 | 40893 ft | 478 kts | 33° |
| 2026-05-06 19:28 | 17.04808 | 113.69082 | 40889 ft | 478 kts | 33° |
| 2026-05-06 19:28 | 17.10309 | 113.72998 | 40888 ft | 478 kts | 33° |
| 2026-05-06 19:29 | 17.15812 | 113.76903 | 40886 ft | 478 kts | 33° |
| 2026-05-06 19:29 | 17.20383 | 113.80153 | 40890 ft | 478 kts | 33° |
| 2026-05-06 19:30 | 17.25890 | 113.84077 | 40888 ft | 478 kts | 33° |
| 2026-05-06 19:30 | 17.31388 | 113.88000 | 40890 ft | 478 kts | 33° |
| 2026-05-06 19:31 | 17.36886 | 113.91926 | 40898 ft | 478 kts | 33° |
| 2026-05-06 19:31 | 17.45128 | 113.97815 | 40891 ft | 478 kts | 33° |
| 2026-05-06 19:32 | 17.50626 | 114.01747 | 40894 ft | 478 kts | 33° |
| 2026-05-06 19:32 | 17.56118 | 114.05678 | 40899 ft | 478 kts | 33° |
| 2026-05-06 19:33 | 17.61613 | 114.09614 | 40899 ft | 478 kts | 33° |
| 2026-05-06 19:33 | 17.67108 | 114.13553 | 40896 ft | 478 kts | 33° |
| 2026-05-06 19:34 | 17.72600 | 114.17493 | 40900 ft | 478 kts | 33° |
| 2026-05-06 19:34 | 17.78093 | 114.21437 | 40900 ft | 478 kts | 33° |
| 2026-05-06 19:35 | 17.83589 | 114.25385 | 40894 ft | 478 kts | 33° |
| 2026-05-06 19:35 | 17.89080 | 114.29333 | 40900 ft | 478 kts | 33° |
| 2026-05-06 19:36 | 17.94566 | 114.33281 | 40910 ft | 478 kts | 33° |
| 2026-05-06 19:36 | 18.00018 | 114.37207 | 40915 ft | 478 kts | 33° |
| 2026-05-06 19:37 | 18.05503 | 114.41161 | 40917 ft | 478 kts | 33° |
| 2026-05-06 19:37 | 18.10989 | 114.45118 | 40920 ft | 478 kts | 33° |
| 2026-05-06 19:38 | 18.16476 | 114.49079 | 40927 ft | 478 kts | 33° |
| 2026-05-06 19:38 | 18.22130 | 114.52705 | 40918 ft | 474 kts | 19° |
| 2026-05-06 19:39 | 18.25301 | 114.53606 | 40934 ft | 472 kts | 7° |
| 2026-05-06 19:39 | 18.28566 | 114.53838 | 40922 ft | 471 kts | 355° |
| 2026-05-06 19:39 | 18.35050 | 114.53013 | 40919 ft | 470 kts | 351° |
| 2026-05-06 19:40 | 18.41541 | 114.52099 | 40915 ft | 472 kts | 352° |
| 2026-05-06 19:40 | 18.48063 | 114.51242 | 40912 ft | 473 kts | 352° |
| 2026-05-06 19:41 | 18.54611 | 114.50417 | 40907 ft | 474 kts | 352° |
| 2026-05-06 19:41 | 18.61167 | 114.49597 | 40915 ft | 474 kts | 352° |
| 2026-05-06 19:42 | 18.67722 | 114.48774 | 40917 ft | 475 kts | 352° |
| 2026-05-06 19:42 | 18.74283 | 114.47947 | 40917 ft | 474 kts | 352° |
| 2026-05-06 19:43 | 18.80836 | 114.47121 | 40917 ft | 474 kts | 352° |
| 2026-05-06 19:43 | 18.87380 | 114.46295 | 40915 ft | 473 kts | 352° |
| 2026-05-06 19:44 | 18.93912 | 114.45470 | 40917 ft | 472 kts | 352° |
| 2026-05-06 19:44 | 19.00422 | 114.44648 | 40915 ft | 472 kts | 352° |
| 2026-05-06 19:45 | 19.06960 | 114.44012 | 40915 ft | 472 kts | 354° |
| 2026-05-06 19:45 | 19.13500 | 114.43494 | 40915 ft | 471 kts | 354° |
| 2026-05-06 19:46 | 19.20037 | 114.42956 | 40918 ft | 471 kts | 354° |
| 2026-05-06 19:46 | 19.26510 | 114.42398 | 40916 ft | 471 kts | 353° |
| 2026-05-06 19:47 | 19.33035 | 114.41827 | 40918 ft | 470 kts | 353° |
| 2026-05-06 19:47 | 19.39561 | 114.41256 | 40917 ft | 470 kts | 353° |
| 2026-05-06 19:48 | 19.46077 | 114.40686 | 40919 ft | 470 kts | 353° |
| 2026-05-06 19:48 | 19.52612 | 114.40115 | 40926 ft | 470 kts | 353° |
| 2026-05-06 19:49 | 19.59139 | 114.39544 | 40926 ft | 471 kts | 353° |
| 2026-05-06 19:49 | 19.65669 | 114.38973 | 40928 ft | 471 kts | 353° |
| 2026-05-06 19:50 | 19.72200 | 114.38400 | 40926 ft | 471 kts | 353° |
| 2026-05-06 19:50 | 19.78728 | 114.37828 | 40925 ft | 471 kts | 353° |
| 2026-05-06 19:51 | 19.85246 | 114.37256 | 40926 ft | 471 kts | 353° |
| 2026-05-06 19:51 | 19.91771 | 114.36686 | 40926 ft | 471 kts | 353° |
| 2026-05-06 19:52 | 19.98312 | 114.36115 | 40926 ft | 471 kts | 353° |
| 2026-05-06 19:52 | 20.04847 | 114.35543 | 40927 ft | 471 kts | 353° |
| 2026-05-06 19:53 | 20.11336 | 114.34975 | 40926 ft | 471 kts | 353° |
| 2026-05-06 19:53 | 20.17869 | 114.34402 | 40928 ft | 471 kts | 353° |
| 2026-05-06 19:54 | 20.24396 | 114.33829 | 40924 ft | 471 kts | 353° |
| 2026-05-06 19:54 | 20.30923 | 114.33256 | 40926 ft | 470 kts | 353° |
| 2026-05-06 19:55 | 20.37446 | 114.32683 | 40925 ft | 470 kts | 353° |
| 2026-05-06 19:55 | 20.43966 | 114.32109 | 40926 ft | 470 kts | 353° |
| 2026-05-06 19:56 | 20.50484 | 114.31535 | 40935 ft | 470 kts | 353° |
| 2026-05-06 19:56 | 20.57001 | 114.30961 | 40936 ft | 470 kts | 353° |
| 2026-05-06 19:57 | 20.63521 | 114.30386 | 40935 ft | 470 kts | 353° |
| 2026-05-06 19:57 | 20.70043 | 114.29810 | 40935 ft | 470 kts | 353° |
| 2026-05-06 19:58 | 20.76563 | 114.29234 | 40936 ft | 470 kts | 353° |
| 2026-05-06 19:58 | 20.83085 | 114.28658 | 40935 ft | 470 kts | 353° |
| 2026-05-06 19:59 | 20.89612 | 114.28093 | 40936 ft | 470 kts | 353° |
| 2026-05-06 19:59 | 20.96134 | 114.27532 | 40934 ft | 470 kts | 353° |
| 2026-05-06 20:00 | 21.02653 | 114.26969 | 40937 ft | 470 kts | 352° |
| 2026-05-06 20:00 | 21.09177 | 114.26394 | 40934 ft | 470 kts | 352° |
| 2026-05-06 20:01 | 21.15647 | 114.25804 | 40937 ft | 470 kts | 352° |
| 2026-05-06 20:01 | 21.22163 | 114.25211 | 40934 ft | 470 kts | 352° |
| 2026-05-06 20:02 | 21.28675 | 114.24620 | 40935 ft | 470 kts | 352° |
| 2026-05-06 20:02 | 21.35188 | 114.24031 | 40936 ft | 470 kts | 352° |
| 2026-05-06 20:03 | 21.41702 | 114.23447 | 40935 ft | 470 kts | 352° |
| 2026-05-06 20:03 | 21.48215 | 114.22864 | 40935 ft | 469 kts | 352° |
| 2026-05-06 20:04 | 21.54724 | 114.22279 | 40935 ft | 469 kts | 352° |
| 2026-05-06 20:04 | 21.61234 | 114.21693 | 40935 ft | 469 kts | 352° |
| 2026-05-06 20:05 | 21.67743 | 114.21108 | 40935 ft | 469 kts | 352° |
| 2026-05-06 20:05 | 21.74248 | 114.20524 | 40935 ft | 469 kts | 352° |
| 2026-05-06 20:06 | 21.80759 | 114.19941 | 40935 ft | 469 kts | 352° |
| 2026-05-06 20:06 | 21.87267 | 114.19356 | 40936 ft | 469 kts | 352° |
| 2026-05-06 20:07 | 21.93777 | 114.18770 | 40935 ft | 469 kts | 352° |
| 2026-05-06 20:07 | 22.00282 | 114.18185 | 40937 ft | 469 kts | 352° |
| 2026-05-06 20:08 | 22.06750 | 114.17602 | 40931 ft | 470 kts | 352° |
| 2026-05-06 20:08 | 22.13264 | 114.17014 | 40936 ft | 470 kts | 352° |
| 2026-05-06 20:09 | 22.19761 | 114.16428 | 40935 ft | 470 kts | 352° |
| 2026-05-06 20:09 | 22.26275 | 114.15839 | 40931 ft | 469 kts | 352° |
| 2026-05-06 20:10 | 22.29530 | 114.15543 | 40743 ft | 472 kts | 352° |
| 2026-05-06 20:10 | 22.32841 | 114.15242 | 39952 ft | 480 kts | 352° |
| 2026-05-06 20:10 | 22.36161 | 114.14943 | 39213 ft | 478 kts | 352° |
| 2026-05-06 20:10 | 22.39470 | 114.14645 | 38429 ft | 476 kts | 351° |
| 2026-05-06 20:11 | 22.42767 | 114.14348 | 37606 ft | 475 kts | 351° |
| 2026-05-06 20:11 | 22.46059 | 114.14049 | 36773 ft | 474 kts | 351° |
| 2026-05-06 20:11 | 22.49339 | 114.13742 | 35897 ft | 473 kts | 350° |
| 2026-05-06 20:11 | 22.52579 | 114.13172 | 34902 ft | 471 kts | 344° |
| 2026-05-06 20:12 | 22.55734 | 114.12251 | 33882 ft | 469 kts | 339° |
| 2026-05-06 20:12 | 22.58807 | 114.11065 | 32792 ft | 469 kts | 334° |
| 2026-05-06 20:12 | 22.61764 | 114.09593 | 31631 ft | 470 kts | 332° |
| 2026-05-06 20:12 | 22.64715 | 114.08052 | 30470 ft | 472 kts | 332° |
| 2026-05-06 20:13 | 22.67657 | 114.06507 | 29620 ft | 467 kts | 332° |
| 2026-05-06 20:13 | 22.70570 | 114.04986 | 28751 ft | 463 kts | 332° |
| 2026-05-06 20:13 | 22.73470 | 114.03486 | 27916 ft | 459 kts | 332° |
| 2026-05-06 20:13 | 22.76345 | 114.02008 | 27077 ft | 456 kts | 332° |
| 2026-05-06 20:14 | 22.79205 | 114.00541 | 26186 ft | 454 kts | 332° |
| 2026-05-06 20:14 | 22.82054 | 113.99079 | 25346 ft | 452 kts | 332° |
| 2026-05-06 20:14 | 22.84887 | 113.97624 | 24541 ft | 449 kts | 332° |
| 2026-05-06 20:14 | 22.87699 | 113.96181 | 23752 ft | 446 kts | 332° |
| 2026-05-06 20:15 | 22.90559 | 113.94924 | 22962 ft | 446 kts | 342° |
| 2026-05-06 20:15 | 22.93626 | 113.94379 | 22212 ft | 447 kts | 352° |
| 2026-05-06 20:15 | 22.96706 | 113.94075 | 21458 ft | 443 kts | 352° |
| 2026-05-06 20:15 | 22.99763 | 113.93750 | 20710 ft | 440 kts | 351° |
| 2026-05-06 20:16 | 23.02793 | 113.93377 | 19972 ft | 436 kts | 350° |
| 2026-05-06 20:16 | 23.05793 | 113.92970 | 19234 ft | 433 kts | 350° |
| 2026-05-06 20:16 | 23.08755 | 113.92555 | 18518 ft | 430 kts | 350° |
| 2026-05-06 20:16 | 23.10702 | 113.92282 | 18039 ft | 428 kts | 349° |
| 2026-05-06 20:17 | 23.13653 | 113.91866 | 17277 ft | 421 kts | 348° |
| 2026-05-06 20:17 | 23.16397 | 113.90976 | 16553 ft | 408 kts | 329° |
| 2026-05-06 20:17 | 23.18640 | 113.89167 | 15888 ft | 399 kts | 311° |
| 2026-05-06 20:17 | 23.20262 | 113.86768 | 15210 ft | 392 kts | 297° |
| 2026-05-06 20:18 | 23.21357 | 113.84080 | 14519 ft | 387 kts | 286° |
| 2026-05-06 20:18 | 23.21790 | 113.81237 | 13821 ft | 377 kts | 271° |
| 2026-05-06 20:18 | 23.21842 | 113.78404 | 13178 ft | 374 kts | 270° |
| 2026-05-06 20:18 | 23.21896 | 113.75583 | 12513 ft | 373 kts | 271° |
| 2026-05-06 20:19 | 23.21978 | 113.72771 | 11856 ft | 372 kts | 272° |
| 2026-05-06 20:19 | 23.22081 | 113.69964 | 11194 ft | 371 kts | 272° |
| 2026-05-06 20:19 | 23.22188 | 113.67181 | 10784 ft | 363 kts | 272° |
| 2026-05-06 20:19 | 23.22292 | 113.64492 | 10619 ft | 350 kts | 271° |
| 2026-05-06 20:20 | 23.22390 | 113.61892 | 10469 ft | 338 kts | 271° |
| 2026-05-06 20:20 | 23.22485 | 113.59379 | 10300 ft | 328 kts | 271° |
| 2026-05-06 20:20 | 23.22577 | 113.56940 | 10161 ft | 318 kts | 271° |
| 2026-05-06 20:20 | 23.22665 | 113.54572 | 10025 ft | 309 kts | 271° |
| 2026-05-06 20:21 | 23.22751 | 113.52275 | 9858 ft | 301 kts | 271° |
| 2026-05-06 20:21 | 23.22666 | 113.50069 | 9629 ft | 289 kts | 259° |
| 2026-05-06 20:21 | 23.22223 | 113.47933 | 9248 ft | 290 kts | 255° |
| 2026-05-06 20:21 | 23.21699 | 113.45829 | 8940 ft | 288 kts | 253° |
| 2026-05-06 20:22 | 23.21169 | 113.43729 | 8589 ft | 288 kts | 253° |
| 2026-05-06 20:22 | 23.20645 | 113.41650 | 8397 ft | 280 kts | 253° |
| 2026-05-06 20:22 | 23.20135 | 113.39615 | 8016 ft | 277 kts | 253° |
| 2026-05-06 20:22 | 23.19647 | 113.37645 | 7854 ft | 264 kts | 253° |
| 2026-05-06 20:23 | 23.19174 | 113.35732 | 7448 ft | 260 kts | 253° |
| 2026-05-06 20:23 | 23.18716 | 113.33870 | 6950 ft | 250 kts | 253° |
| 2026-05-06 20:23 | 23.18286 | 113.32101 | 6636 ft | 233 kts | 253° |
| 2026-05-06 20:23 | 23.17885 | 113.30445 | 6247 ft | 221 kts | 253° |
| 2026-05-06 20:24 | 23.17507 | 113.28835 | 5876 ft | 220 kts | 253° |
| 2026-05-06 20:24 | 23.17132 | 113.27221 | 5456 ft | 221 kts | 254° |
| 2026-05-06 20:24 | 23.16775 | 113.25600 | 5053 ft | 218 kts | 261° |
| 2026-05-06 20:24 | 23.16999 | 113.23985 | 4619 ft | 222 kts | 297° |
| 2026-05-06 20:25 | 23.18065 | 113.22808 | 4232 ft | 222 kts | 333° |
| 2026-05-06 20:25 | 23.19541 | 113.22533 | 3972 ft | 213 kts | 8° |
| 2026-05-06 20:25 | 23.20932 | 113.22890 | 3899 ft | 202 kts | 15° |
| 2026-05-06 20:25 | 23.22298 | 113.23261 | 3786 ft | 203 kts | 14° |
| 2026-05-06 20:26 | 23.23693 | 113.23638 | 3380 ft | 209 kts | 15° |
| 2026-05-06 20:26 | 23.25119 | 113.24025 | 2904 ft | 209 kts | 15° |
| 2026-05-06 20:26 | 23.26496 | 113.24399 | 2467 ft | 199 kts | 15° |
| 2026-05-06 20:26 | 23.27815 | 113.24755 | 2110 ft | 190 kts | 15° |
| 2026-05-06 20:27 | 23.29050 | 113.25088 | 1865 ft | 185 kts | 15° |
| 2026-05-06 20:27 | 23.30294 | 113.25444 | 1628 ft | 181 kts | 20° |
| 2026-05-06 20:27 | 23.31377 | 113.26083 | 1372 ft | 176 kts | 33° |
| 2026-05-06 20:27 | 23.32393 | 113.26777 | 1197 ft | 168 kts | 27° |
| 2026-05-06 20:28 | 23.33441 | 113.27214 | 941 ft | 156 kts | 15° |
| 2026-05-06 20:28 | 23.34457 | 113.27482 | 743 ft | 146 kts | 14° |
| 2026-05-06 20:28 | 23.35437 | 113.27751 | 571 ft | 146 kts | 14° |
| 2026-05-06 20:28 | 23.36425 | 113.28009 | 374 ft | 146 kts | 14° |
| 2026-05-06 20:29 | 23.37410 | 113.28276 | 205 ft | 146 kts | 14° |
| 2026-05-06 20:29 | 23.38370 | 113.28545 | 60 ft | 133 kts | 14° |
| 2026-05-06 20:29 | 23.39170 | 113.28754 | 66 ft | 101 kts | 13° |
| 2026-05-06 20:29 | 23.39733 | 113.28904 | 61 ft | 66 kts | 14° |
| 2026-05-06 20:30 | 23.40066 | 113.29011 | 57 ft | 34 kts | 30° |
| 2026-05-06 20:30 | 23.40308 | 113.29235 | 58 ft | 0 kts | 42° |
| 2026-05-06 20:32 | 23.40347 | 113.29250 | 55 ft | 16 kts | 354° |
| 2026-05-06 20:32 | 23.40456 | 113.29286 | 63 ft | 25 kts | 26° |
| 2026-05-06 20:32 | 23.40578 | 113.29325 | 61 ft | 18 kts | 14° |
| 2026-05-06 20:32 | 23.40698 | 113.29358 | 61 ft | 18 kts | 13° |
| 2026-05-06 20:33 | 23.40775 | 113.29391 | 57 ft | 11 kts | 53° |
| 2026-05-06 20:33 | 23.40773 | 113.29475 | 59 ft | 12 kts | 102° |
| 2026-05-06 20:33 | 23.40793 | 113.29560 | 63 ft | 13 kts | 28° |
| 2026-05-06 20:33 | 23.40873 | 113.29540 | 61 ft | 14 kts | 304° |
| 2026-05-06 20:34 | 23.40923 | 113.29510 | 63 ft | 4 kts | 360° |
| 2026-05-06 20:34 | 23.40952 | 113.29528 | 59 ft | 6 kts | 54° |
| 2026-05-06 20:34 | 23.40947 | 113.29572 | 60 ft | 7 kts | 103° |
| 2026-05-06 20:34 | 23.40941 | 113.29601 | 57 ft | 1 kts | 104° |
| 2026-05-06 20:35 | 23.40938 | 113.29612 | 61 ft | 0 kts | 104° |